Time;durP1;ratioP1;P1;durP2;ratioP2;P2;SDS_P1;SDS_P2;PMS_P1;PMS_P2;Temp;Humidity;BMP_temperature;BMP_pressure;BME280_temperature;BME280_humidity;BME280_pressure;Samples;Min_cycle;Max_cycle;Signal;HPM_P1;HPM_P2
2022/04/28 00:01:28;;;;;;;2.88;1.80;;;;;;;;;;5137679;27;20043;-84
2022/04/28 00:04:14;;;;;;;1.92;1.70;;;;;;;;;;5137119;27;20047;-83
2022/04/28 00:06:59;;;;;;;2.28;1.77;;;;;;;;;;5137417;27;20039;-85
2022/04/28 00:09:46;;;;;;;2.80;2.08;;;;;;;;;;5137766;27;20050;-85
2022/04/28 00:12:32;;;;;;;1.67;1.58;;;;;;;;;;5138396;27;20078;-85
2022/04/28 00:15:18;;;;;;;3.05;1.80;;;;;;;;;;5162743;27;20031;-83
2022/04/28 00:18:05;;;;;;;1.83;1.73;;;;;;;;;;5145472;27;20039;-85
2022/04/28 00:20:50;;;;;;;2.95;2.15;;;;;;;;;;5137870;27;20035;-84
2022/04/28 00:23:36;;;;;;;2.55;2.05;;;;;;;;;;5137404;27;20055;-80
2022/04/28 00:26:21;;;;;;;2.33;2.00;;;;;;;;;;5136814;27;20043;-84
2022/04/28 00:29:07;;;;;;;3.05;2.30;;;;;;;;;;5136958;27;20035;-83
2022/04/28 00:31:53;;;;;;;2.17;1.80;;;;;;;;;;5136703;27;20054;-85
2022/04/28 00:34:38;;;;;;;2.50;2.30;;;;;;;;;;5142326;27;20047;-83
2022/04/28 00:37:23;;;;;;;2.88;2.58;;;;;;;;;;5136763;27;20395;-83
2022/04/28 00:40:09;;;;;;;3.22;2.20;;;;;;;;;;5141684;27;20039;-83
2022/04/28 00:43:18;;;;;;;3.28;2.97;;;;;;;;;;5142621;27;20043;-83
2022/04/28 00:46:00;;;;;;;3.13;2.72;;;;;;;;;;5136421;27;20047;-83
2022/04/28 00:51:49;;;;;;;4.35;3.08;;;;;;;;;;5136637;27;20043;-83
2022/04/28 00:54:35;;;;;;;4.40;3.80;;;;;;;;;;5135938;27;20039;-82
2022/04/28 00:57:22;;;;;;;3.22;2.67;;;;;;;;;;5136324;27;20047;-82
2022/04/28 01:00:11;;;;;;;6.30;3.88;;;;;;;;;;5136311;27;20035;-82
2022/04/28 01:02:56;;;;;;;4.53;3.50;;;;;;;;;;5141971;27;20043;-83
2022/04/28 01:05:41;;;;;;;5.20;4.68;;;;;;;;;;5142117;27;20043;-83
2022/04/28 01:08:28;;;;;;;5.55;4.15;;;;;;;;;;5127137;27;20047;-83
2022/04/28 01:11:16;;;;;;;7.07;4.97;;;;;;;;;;5142836;27;20031;-83
2022/04/28 01:14:14;;;;;;;6.15;4.70;;;;;;;;;;5142166;27;20039;-84
2022/04/28 01:17:07;;;;;;;5.18;4.45;;;;;;;;;;5141581;27;20055;-85
2022/04/28 01:19:55;;;;;;;4.57;3.95;;;;;;;;;;5142078;27;20043;-85
2022/04/28 01:22:41;;;;;;;6.47;4.38;;;;;;;;;;5141212;27;20476;-85
2022/04/28 01:25:31;;;;;;;6.43;4.90;;;;;;;;;;5142147;27;20054;-84
2022/04/28 01:28:16;;;;;;;5.78;4.72;;;;;;;;;;5142000;27;20047;-85
2022/04/28 01:31:05;;;;;;;6.05;5.07;;;;;;;;;;5141044;27;20039;-84
2022/04/28 01:33:57;;;;;;;6.70;5.28;;;;;;;;;;5141797;27;20047;-84
2022/04/28 01:36:43;;;;;;;6.57;5.00;;;;;;;;;;5140984;27;20047;-84
2022/04/28 01:39:28;;;;;;;6.35;5.22;;;;;;;;;;5141965;27;20047;-84
2022/04/28 01:42:15;;;;;;;5.70;5.03;;;;;;;;;;5141563;27;20039;-84
2022/04/28 01:45:00;;;;;;;6.35;5.63;;;;;;;;;;5135027;27;20457;-85
2022/04/28 01:47:46;;;;;;;6.47;5.10;;;;;;;;;;5141820;27;20039;-85
2022/04/28 01:54:57;;;;;;;8.25;5.78;;;;;;;;;;5140866;27;20043;-86
2022/04/28 01:57:11;;;;;;;5.97;5.38;;;;;;;;;;5142280;27;20039;-86
2022/04/28 02:00:23;;;;;;;6.18;5.40;;;;;;;;;;5124088;27;20043;-86
2022/04/28 02:03:16;;;;;;;7.18;5.60;;;;;;;;;;5128405;27;20488;-85
2022/04/28 02:06:02;;;;;;;6.63;5.18;;;;;;;;;;5140652;27;20035;-85
2022/04/28 02:08:48;;;;;;;7.38;5.47;;;;;;;;;;5141426;27;20039;-85
2022/04/28 02:11:35;;;;;;;7.22;5.53;;;;;;;;;;5141035;27;20039;-85
2022/04/28 02:14:39;;;;;;;7.55;6.03;;;;;;;;;;5135071;27;20407;-85
2022/04/28 02:17:40;;;;;;;6.88;5.72;;;;;;;;;;5140996;27;20480;-85
2022/04/28 02:20:26;;;;;;;8.57;6.50;;;;;;;;;;5140354;27;20396;-85
2022/04/28 02:23:13;;;;;;;7.72;6.22;;;;;;;;;;5141396;27;20046;-84
2022/04/28 02:25:58;;;;;;;7.63;5.95;;;;;;;;;;5137847;27;20495;-85
2022/04/28 02:28:44;;;;;;;6.82;6.05;;;;;;;;;;5165206;27;20055;-84
2022/04/28 02:31:30;;;;;;;7.38;6.40;;;;;;;;;;5153171;27;20042;-86
2022/04/28 02:34:15;;;;;;;7.47;6.10;;;;;;;;;;5140538;27;20043;-85
2022/04/28 02:37:06;;;;;;;7.55;5.97;;;;;;;;;;5142240;27;20043;-85
2022/04/28 02:39:51;;;;;;;7.40;5.90;;;;;;;;;;5140595;27;20476;-85
2022/04/28 02:42:38;;;;;;;6.80;6.00;;;;;;;;;;5140193;27;20434;-85
2022/04/28 02:45:23;;;;;;;6.70;6.00;;;;;;;;;;5140730;27;20039;-84
2022/04/28 02:48:13;;;;;;;7.25;6.22;;;;;;;;;;5140035;27;20035;-84
2022/04/28 02:50:59;;;;;;;8.77;6.75;;;;;;;;;;5140804;27;20039;-84
2022/04/28 02:53:44;;;;;;;6.88;6.00;;;;;;;;;;5134528;28;20035;-85
2022/04/28 02:56:30;;;;;;;7.85;6.43;;;;;;;;;;5133931;28;20505;-85
2022/04/28 02:59:15;;;;;;;7.97;6.43;;;;;;;;;;5140819;27;20039;-84
2022/04/28 03:02:01;;;;;;;8.02;6.50;;;;;;;;;;5139700;27;20050;-85
2022/04/28 03:04:47;;;;;;;7.10;6.03;;;;;;;;;;5134497;28;20044;-84
2022/04/28 03:10:51;;;;;;;7.72;6.13;;;;;;;;;;5140506;27;20047;-84
2022/04/28 03:13:39;;;;;;;7.45;6.13;;;;;;;;;;5144631;27;20387;-85
2022/04/28 03:16:24;;;;;;;9.90;5.82;;;;;;;;;;5143845;27;20043;-85
2022/04/28 03:19:18;;;;;;;;;;;;;;;;;;5145190;27;20051;-84
2022/04/28 03:22:04;;;;;;;11.32;6.82;;;;;;;;;;5144060;27;19915;-84
2022/04/28 03:24:50;;;;;;;9.15;6.60;;;;;;;;;;5144043;27;20035;-84
2022/04/28 03:27:35;;;;;;;10.93;6.78;;;;;;;;;;5144175;27;20035;-85
2022/04/28 03:30:21;;;;;;;7.80;6.88;;;;;;;;;;5137325;27;20039;-85
2022/04/28 03:33:22;;;;;;;8.25;6.60;;;;;;;;;;5144831;27;20047;-85
2022/04/28 03:39:11;;;;;;;9.52;7.50;;;;;;;;;;5143387;27;20039;-85
2022/04/28 03:41:58;;;;;;;9.38;7.07;;;;;;;;;;5143530;27;20043;-85
2022/04/28 03:44:43;;;;;;;9.68;7.75;;;;;;;;;;5143561;27;20047;-85
2022/04/28 03:47:32;;;;;;;10.95;7.20;;;;;;;;;;5144079;27;20043;-84
2022/04/28 03:50:18;;;;;;;10.32;7.93;;;;;;;;;;5143753;27;20035;-84
2022/04/28 03:53:04;;;;;;;10.23;7.82;;;;;;;;;;5144104;27;20400;-85
2022/04/28 03:55:50;;;;;;;9.07;7.63;;;;;;;;;;5143402;27;20040;-84
2022/04/28 03:58:36;;;;;;;13.23;7.85;;;;;;;;;;5143345;27;20038;-84
2022/04/28 04:01:21;;;;;;;9.60;7.20;;;;;;;;;;5143566;27;20426;-86
2022/04/28 04:04:27;;;;;;;9.57;7.40;;;;;;;;;;5144330;27;20475;-85
2022/04/28 04:07:20;;;;;;;9.80;7.43;;;;;;;;;;5143464;27;20392;-86
2022/04/28 04:10:13;;;;;;;9.20;7.47;;;;;;;;;;5137304;27;20035;-86
2022/04/28 04:13:02;;;;;;;8.10;6.90;;;;;;;;;;5137208;27;20047;-86
2022/04/28 04:15:50;;;;;;;8.55;6.97;;;;;;;;;;5143114;27;20047;-86
2022/04/28 04:18:41;;;;;;;7.68;6.63;;;;;;;;;;5143114;27;20043;-85
2022/04/28 04:21:32;;;;;;;7.95;6.57;;;;;;;;;;5142296;27;20043;-85
2022/04/28 04:24:18;;;;;;;8.52;6.65;;;;;;;;;;5128845;27;20051;-86
2022/04/28 04:27:03;;;;;;;9.48;6.95;;;;;;;;;;5144105;27;20035;-86
2022/04/28 04:33:24;;;;;;;8.23;6.78;;;;;;;;;;5144299;27;20475;-85
2022/04/28 04:36:10;;;;;;;8.30;6.80;;;;;;;;;;5143252;27;20047;-83
2022/04/28 04:38:55;;;;;;;7.93;6.82;;;;;;;;;;5143462;27;20043;-85
2022/04/28 04:41:42;;;;;;;8.32;6.97;;;;;;;;;;5168292;27;20043;-84
2022/04/28 04:44:28;;;;;;;9.02;6.72;;;;;;;;;;5158986;27;20043;-87
2022/04/28 04:47:13;;;;;;;8.55;6.82;;;;;;;;;;5140735;27;20464;-85
2022/04/28 04:50:17;;;;;;;11.27;7.95;;;;;;;;;;5141659;27;20047;-85
2022/04/28 04:53:22;;;;;;;9.77;7.63;;;;;;;;;;5142366;27;20480;-85
2022/04/28 04:56:07;;;;;;;12.10;8.88;;;;;;;;;;5141106;27;20046;-85
2022/04/28 04:58:53;;;;;;;11.63;8.68;;;;;;;;;;5141921;27;20039;-80
2022/04/28 05:01:38;;;;;;;10.85;8.70;;;;;;;;;;5142328;27;20484;-83
2022/04/28 05:04:42;;;;;;;12.43;8.82;;;;;;;;;;5135828;27;20051;-85
2022/04/28 05:07:34;;;;;;;10.40;8.45;;;;;;;;;;5141865;27;20039;-83
2022/04/28 05:10:20;;;;;;;12.35;8.95;;;;;;;;;;5140887;27;20039;-83
2022/04/28 05:13:06;;;;;;;14.15;8.90;;;;;;;;;;5126827;27;20039;-83
2022/04/28 05:16:06;;;;;;;12.07;8.93;;;;;;;;;;5129579;27;20043;-83
2022/04/28 05:19:00;;;;;;;13.27;8.15;;;;;;;;;;5141356;27;20047;-84
2022/04/28 05:22:04;;;;;;;13.85;8.70;;;;;;;;;;5141000;27;20035;-82
2022/04/28 05:25:21;;;;;;;11.32;8.82;;;;;;;;;;5124933;27;20043;-83
2022/04/28 05:28:29;;;;;;;16.52;11.23;;;;;;;;;;5143652;27;20047;-84
2022/04/28 05:31:47;;;;;;;15.02;10.57;;;;;;;;;;5125215;27;20039;-83
2022/04/28 05:34:56;;;;;;;17.48;10.20;;;;;;;;;;5128236;27;20043;-84
2022/04/28 05:37:42;;;;;;;14.30;10.10;;;;;;;;;;5150246;27;20031;-84
2022/04/28 05:40:29;;;;;;;17.60;9.50;;;;;;;;;;5144670;27;20047;-86
2022/04/28 05:46:17;;;;;;;11.98;8.80;;;;;;;;;;5140856;27;20047;-84
2022/04/28 05:49:07;;;;;;;12.63;9.45;;;;;;;;;;5135208;27;20043;-84
2022/04/28 05:51:53;;;;;;;13.55;9.35;;;;;;;;;;5127302;27;20475;-84
2022/04/28 05:54:41;;;;;;;10.38;8.00;;;;;;;;;;5140680;27;20035;-84
2022/04/28 05:57:27;;;;;;;13.32;9.15;;;;;;;;;;5141533;27;20035;-84
2022/04/28 06:00:13;;;;;;;11.45;7.57;;;;;;;;;;5126275;27;20403;-84
2022/04/28 06:03:01;;;;;;;12.88;10.13;;;;;;;;;;5133427;27;20039;-83
2022/04/28 06:05:54;;;;;;;11.90;8.70;;;;;;;;;;5127788;27;20043;-84
2022/04/28 06:08:39;;;;;;;11.95;8.40;;;;;;;;;;5125309;27;20043;-84
2022/04/28 06:11:24;;;;;;;13.52;7.25;;;;;;;;;;5126608;27;20035;-84
2022/04/28 06:14:10;;;;;;;15.70;8.85;;;;;;;;;;5125925;27;20051;-84
2022/04/28 06:17:05;;;;;;;8.68;5.63;;;;;;;;;;5140572;27;20051;-84
2022/04/28 06:19:51;;;;;;;10.23;7.35;;;;;;;;;;5126544;27;20042;-83
2022/04/28 06:23:15;;;;;;;14.55;8.25;;;;;;;;;;5124233;27;20047;-85
2022/04/28 06:26:05;;;;;;;11.65;8.43;;;;;;;;;;5140961;27;20046;-85
2022/04/28 06:28:51;;;;;;;9.45;7.30;;;;;;;;;;5138222;27;20047;-85
2022/04/28 06:31:36;;;;;;;10.20;7.80;;;;;;;;;;5140172;27;20043;-83
2022/04/28 06:34:43;;;;;;;9.95;7.18;;;;;;;;;;5134253;27;20039;-83
2022/04/28 06:37:29;;;;;;;8.70;6.72;;;;;;;;;;5140303;27;20043;-83
2022/04/28 06:40:17;;;;;;;10.23;7.95;;;;;;;;;;5140177;27;20047;-84
2022/04/28 06:43:07;;;;;;;18.90;7.90;;;;;;;;;;5125922;27;20039;-84
2022/04/28 06:46:12;;;;;;;10.45;7.07;;;;;;;;;;5137073;27;20396;-84
2022/04/28 06:49:16;;;;;;;9.27;7.18;;;;;;;;;;5138240;27;20035;-84
2022/04/28 06:52:16;;;;;;;10.13;6.90;;;;;;;;;;5148000;27;20039;-83
2022/04/28 06:55:21;;;;;;;15.15;7.45;;;;;;;;;;5160685;27;20036;-83
2022/04/28 06:58:11;;;;;;;6.80;4.90;;;;;;;;;;5135262;27;20039;-84
2022/04/28 07:00:59;;;;;;;6.75;5.13;;;;;;;;;;5130611;27;20043;-83
2022/04/28 07:03:44;;;;;;;7.32;5.68;;;;;;;;;;5128921;27;20046;-84
2022/04/28 07:06:30;;;;;;;10.10;6.50;;;;;;;;;;5143986;27;20043;-84
2022/04/28 07:09:16;;;;;;;8.63;5.90;;;;;;;;;;5145295;27;20150;-84
2022/04/28 07:12:03;;;;;;;5.97;5.10;;;;;;;;;;5143331;27;20047;-85
2022/04/28 07:15:11;;;;;;;6.40;3.83;;;;;;;;;;5144847;27;20039;-84
2022/04/28 07:18:09;;;;;;;7.75;4.95;;;;;;;;;;5137497;27;20035;-83
2022/04/28 07:20:54;;;;;;;8.55;5.93;;;;;;;;;;5143524;27;20043;-82
2022/04/28 07:23:42;;;;;;;8.18;5.28;;;;;;;;;;5143554;27;20039;-84
2022/04/28 07:26:29;;;;;;;52.13;26.45;;;;;;;;;;5143026;27;20043;-81
2022/04/28 07:29:14;;;;;;;22.58;10.13;;;;;;;;;;5140613;27;20043;-80
2022/04/28 07:32:26;;;;;;;7.10;6.28;;;;;;;;;;5143831;27;20043;-80
2022/04/28 07:35:50;;;;;;;42.15;22.98;;;;;;;;;;5091731;28;20051;-79
2022/04/28 07:38:53;;;;;;;19.83;8.40;;;;;;;;;;5094664;28;20048;-82
2022/04/28 07:41:49;;;;;;;8.02;6.50;;;;;;;;;;5143289;27;20042;-80
2022/04/28 07:44:36;;;;;;;11.48;7.10;;;;;;;;;;5143852;27;20051;-80
2022/04/28 07:47:23;;;;;;;8.82;5.55;;;;;;;;;;5141091;27;20051;-79
2022/04/28 07:50:32;;;;;;;8.43;6.13;;;;;;;;;;5142306;27;20039;-82
2022/04/28 07:53:40;;;;;;;6.85;5.30;;;;;;;;;;5141972;27;20047;-81
2022/04/28 07:56:26;;;;;;;7.28;5.10;;;;;;;;;;5141792;27;20051;-82
2022/04/28 07:59:11;;;;;;;9.35;6.35;;;;;;;;;;5143479;27;20035;-80
2022/04/28 08:02:16;;;;;;;12.82;6.25;;;;;;;;;;5142595;27;20399;-81
2022/04/28 08:05:06;;;;;;;11.10;6.10;;;;;;;;;;5143235;27;20050;-79
2022/04/28 08:07:51;;;;;;;10.65;5.32;;;;;;;;;;5142390;27;20039;-78
2022/04/28 08:10:37;;;;;;;6.75;5.43;;;;;;;;;;5142788;27;20039;-79
2022/04/28 08:13:22;;;;;;;13.38;6.13;;;;;;;;;;5142945;27;20043;-81
2022/04/28 08:16:40;;;;;;;7.45;5.55;;;;;;;;;;5131773;27;20043;-81
2022/04/28 08:19:25;;;;;;;7.80;5.80;;;;;;;;;;5142920;27;20038;-81
2022/04/28 08:22:20;;;;;;;8.07;5.70;;;;;;;;;;5142112;27;20047;-79
2022/04/28 08:25:05;;;;;;;9.00;5.50;;;;;;;;;;5143028;27;20055;-82
2022/04/28 08:27:50;;;;;;;8.02;5.28;;;;;;;;;;5143088;27;20472;-79
2022/04/28 08:30:35;;;;;;;7.07;6.03;;;;;;;;;;5134932;27;20417;-80
2022/04/28 08:33:21;;;;;;;10.32;6.00;;;;;;;;;;5142508;27;20047;-80
2022/04/28 08:36:07;;;;;;;8.27;5.60;;;;;;;;;;5142199;27;20607;-81
2022/04/28 08:38:56;;;;;;;8.15;5.30;;;;;;;;;;5142370;27;20047;-82
2022/04/28 08:41:47;;;;;;;4.55;3.95;;;;;;;;;;5123246;27;20048;-78
2022/04/28 08:44:58;;;;;;;8.18;5.00;;;;;;;;;;5121752;28;20039;-80
2022/04/28 08:48:04;;;;;;;16.45;5.43;;;;;;;;;;5122259;28;20047;-79
2022/04/28 08:51:20;;;;;;;10.95;5.50;;;;;;;;;;5121018;28;20480;-81
2022/04/28 08:54:09;;;;;;;7.93;4.85;;;;;;;;;;5122559;28;20047;-80
2022/04/28 08:56:57;;;;;;;6.50;4.75;;;;;;;;;;5121629;28;20044;-79
2022/04/28 08:59:44;;;;;;;8.75;5.03;;;;;;;;;;5121268;28;20035;-80
2022/04/28 09:02:31;;;;;;;7.90;5.35;;;;;;;;;;5122404;28;20043;-81
2022/04/28 09:05:39;;;;;;;6.50;4.87;;;;;;;;;;5144159;28;20039;-79
2022/04/28 09:08:51;;;;;;;9.88;6.05;;;;;;;;;;5121371;28;20276;-80
2022/04/28 09:12:09;;;;;;;10.57;5.97;;;;;;;;;;5091253;28;20043;-79
2022/04/28 09:15:32;;;;;;;5.13;4.13;;;;;;;;;;5059039;28;20490;-79
2022/04/28 09:18:28;;;;;;;6.47;4.28;;;;;;;;;;5059308;28;20048;-80
2022/04/28 09:21:13;;;;;;;5.43;3.88;;;;;;;;;;5110687;28;20388;-79
2022/04/28 09:24:00;;;;;;;5.95;4.28;;;;;;;;;;5120368;28;20044;-80
2022/04/28 09:27:10;;;;;;;4.05;3.10;;;;;;;;;;5120119;28;20047;-78
2022/04/28 09:29:55;;;;;;;7.43;3.80;;;;;;;;;;5116321;28;20055;-79
2022/04/28 09:32:41;;;;;;;4.80;3.67;;;;;;;;;;5120432;28;20476;-82
2022/04/28 09:35:49;;;;;;;4.70;3.42;;;;;;;;;;5095588;28;20039;-80
2022/04/28 09:38:53;;;;;;;8.20;3.92;;;;;;;;;;5115308;28;20032;-80
2022/04/28 09:44:53;;;;;;;12.48;6.47;;;;;;;;;;5120573;28;20051;-79
2022/04/28 09:47:38;;;;;;;19.23;7.63;;;;;;;;;;5120195;28;20048;-78
2022/04/28 09:50:24;;;;;;;11.68;4.78;;;;;;;;;;5126868;28;20043;-80
2022/04/28 09:53:24;;;;;;;6.00;3.78;;;;;;;;;;5132011;28;20408;-79
2022/04/28 09:56:47;;;;;;;4.32;2.78;;;;;;;;;;5058372;28;20072;-80
2022/04/28 09:59:37;;;;;;;6.78;3.85;;;;;;;;;;5044747;28;20053;-79
2022/04/28 10:02:27;;;;;;;4.72;3.55;;;;;;;;;;5107224;28;20461;-79
2022/04/28 10:05:14;;;;;;;5.20;3.13;;;;;;;;;;5120112;28;20428;-79
2022/04/28 10:08:11;;;;;;;6.32;3.78;;;;;;;;;;5119988;28;20039;-79
2022/04/28 10:10:57;;;;;;;3.88;2.88;;;;;;;;;;5120105;28;20408;-80
2022/04/28 10:13:43;;;;;;;7.72;3.42;;;;;;;;;;5120600;28;20044;-79
2022/04/28 10:16:29;;;;;;;3.50;2.70;;;;;;;;;;5119195;28;20051;-80
2022/04/28 10:19:27;;;;;;;4.43;3.40;;;;;;;;;;5119471;28;20040;-78
2022/04/28 10:22:25;;;;;;;4.10;3.10;;;;;;;;;;5121075;28;20055;-82
2022/04/28 10:32:23;;;;;;;6.75;3.15;;;;;;;;;;5093054;28;19985;-78
2022/04/28 10:35:08;;;;;;;4.57;2.97;;;;;;;;;;5100135;28;20469;-77
2022/04/28 10:38:04;;;;;;;4.43;3.10;;;;;;;;;;5098553;28;20052;-78
2022/04/28 10:41:05;;;;;;;3.55;2.90;;;;;;;;;;5093619;28;20477;-77
2022/04/28 10:43:51;;;;;;;4.45;3.40;;;;;;;;;;5092992;28;20044;-78
2022/04/28 10:46:36;;;;;;;6.00;2.70;;;;;;;;;;5092828;28;20044;-79
2022/04/28 10:49:25;;;;;;;3.50;2.60;;;;;;;;;;5094641;28;20044;-80
2022/04/28 10:52:25;;;;;;;5.28;3.63;;;;;;;;;;5093111;28;20044;-78
2022/04/28 10:55:12;;;;;;;5.32;2.92;;;;;;;;;;5100317;28;20053;-80
2022/04/28 10:58:17;;;;;;;5.15;3.00;;;;;;;;;;5093432;28;20481;-79
2022/04/28 11:01:04;;;;;;;2.85;2.50;;;;;;;;;;5093276;28;20044;-79
2022/04/28 11:03:48;;;;;;;7.53;3.08;;;;;;;;;;5092326;28;20044;-78
2022/04/28 11:06:37;;;;;;;6.03;3.08;;;;;;;;;;5097942;28;20051;-79
2022/04/28 11:09:33;;;;;;;5.28;3.00;;;;;;;;;;5093412;28;20048;-79
2022/04/28 11:12:18;;;;;;;4.38;3.15;;;;;;;;;;5093207;28;20048;-79
2022/04/28 11:15:08;;;;;;;2.45;1.88;;;;;;;;;;5094421;28;20052;-77
2022/04/28 11:17:56;;;;;;;4.28;2.50;;;;;;;;;;5121618;28;20040;-78
2022/04/28 11:20:41;;;;;;;4.75;2.67;;;;;;;;;;5092976;28;20044;-79
2022/04/28 11:23:33;;;;;;;6.43;3.50;;;;;;;;;;5098760;28;20044;-78
2022/04/28 11:26:20;;;;;;;4.18;3.10;;;;;;;;;;5092933;28;20048;-79
2022/04/28 11:29:09;;;;;;;5.10;3.63;;;;;;;;;;5094912;28;20523;-79
2022/04/28 11:31:54;;;;;;;3.65;3.00;;;;;;;;;;5098829;28;20583;-78
2022/04/28 11:34:40;;;;;;;9.25;4.40;;;;;;;;;;5095480;28;20048;-78
2022/04/28 11:37:26;;;;;;;10.77;3.58;;;;;;;;;;5103414;28;20477;-78
2022/04/28 11:40:13;;;;;;;8.43;3.63;;;;;;;;;;5096417;28;20037;-79
2022/04/28 11:43:02;;;;;;;10.13;4.03;;;;;;;;;;5095879;28;20040;-80
2022/04/28 11:45:48;;;;;;;4.07;2.88;;;;;;;;;;5096641;28;20051;-78
2022/04/28 11:48:35;;;;;;;18.70;4.13;;;;;;;;;;5095694;28;20040;-78
2022/04/28 11:51:24;;;;;;;7.07;3.10;;;;;;;;;;5096090;28;20040;-79
2022/04/28 11:54:21;;;;;;;12.40;4.25;;;;;;;;;;5102770;28;20485;-79
2022/04/28 11:57:09;;;;;;;9.43;2.83;;;;;;;;;;5095639;28;20488;-78
2022/04/28 11:59:54;;;;;;;3.13;2.38;;;;;;;;;;5102909;28;20396;-78
2022/04/28 12:02:42;;;;;;;5.50;2.53;;;;;;;;;;5101987;28;20409;-79
2022/04/28 12:05:27;;;;;;;6.32;3.47;;;;;;;;;;5096026;28;20040;-79
2022/04/28 12:08:13;;;;;;;3.28;2.50;;;;;;;;;;5096363;28;20473;-79
2022/04/28 12:14:23;;;;;;;5.65;3.67;;;;;;;;;;5096083;28;20036;-79
2022/04/28 12:20:12;;;;;;;3.38;2.78;;;;;;;;;;5095632;28;20044;-79
2022/04/28 12:22:58;;;;;;;22.85;4.20;;;;;;;;;;5102384;28;20048;-80
2022/04/28 12:25:42;;;;;;;12.10;3.58;;;;;;;;;;5095125;28;20036;-80
2022/04/28 12:28:38;;;;;;;10.15;4.82;;;;;;;;;;5095596;28;20048;-80
2022/04/28 12:31:29;;;;;;;3.08;2.40;;;;;;;;;;5095138;28;20040;-79
2022/04/28 12:34:20;;;;;;;6.28;3.47;;;;;;;;;;5095267;28;20044;-80
2022/04/28 12:37:05;;;;;;;10.48;3.47;;;;;;;;;;5102525;28;20036;-79
2022/04/28 12:40:18;;;;;;;5.25;2.95;;;;;;;;;;5095130;28;20044;-80
2022/04/28 12:43:03;;;;;;;27.80;5.82;;;;;;;;;;5101541;28;20496;-79
2022/04/28 12:45:56;;;;;;;15.35;5.10;;;;;;;;;;5101702;28;20040;-79
2022/04/28 12:48:41;;;;;;;8.35;3.35;;;;;;;;;;5095447;28;20056;-82
2022/04/28 12:51:27;;;;;;;38.90;8.55;;;;;;;;;;5094999;28;20040;-81
2022/04/28 12:54:13;;;;;;;24.35;5.32;;;;;;;;;;5094868;28;20385;-82
2022/04/28 12:57:02;;;;;;;19.70;6.53;;;;;;;;;;5101098;28;20040;-80
2022/04/28 12:59:49;;;;;;;12.18;4.25;;;;;;;;;;5094577;28;20048;-82
2022/04/28 13:02:34;;;;;;;4.25;3.10;;;;;;;;;;5095543;28;20469;-80
2022/04/28 13:05:20;;;;;;;16.17;4.40;;;;;;;;;;5095107;28;20404;-81
2022/04/28 13:08:06;;;;;;;2.67;2.00;;;;;;;;;;5094636;28;20044;-82
2022/04/28 13:10:53;;;;;;;10.00;3.20;;;;;;;;;;5094969;28;20036;-82
2022/04/28 13:13:38;;;;;;;3.88;2.58;;;;;;;;;;5094393;28;20290;-81
2022/04/28 13:16:25;;;;;;;6.25;4.00;;;;;;;;;;5101450;28;20052;-80
2022/04/28 13:19:10;;;;;;;5.88;3.17;;;;;;;;;;5101173;28;20048;-81
2022/04/28 13:21:55;;;;;;;7.28;2.45;;;;;;;;;;5093868;28;20396;-79
2022/04/28 13:24:41;;;;;;;3.20;2.28;;;;;;;;;;5094550;28;20048;-81
2022/04/28 13:27:27;;;;;;;4.53;3.25;;;;;;;;;;5101068;28;20143;-78
2022/04/28 13:30:13;;;;;;;5.00;3.72;;;;;;;;;;5110834;28;20056;-81
2022/04/28 13:32:58;;;;;;;5.85;3.85;;;;;;;;;;5095048;28;20052;-81
2022/04/28 13:35:44;;;;;;;5.82;3.35;;;;;;;;;;5100849;28;20048;-81
2022/04/28 13:38:30;;;;;;;5.22;3.55;;;;;;;;;;5101398;28;20047;-82
2022/04/28 13:41:15;;;;;;;7.65;4.13;;;;;;;;;;5101210;28;20051;-81
2022/04/28 13:44:01;;;;;;;4.97;3.50;;;;;;;;;;5100291;28;20509;-82
2022/04/28 13:46:48;;;;;;;8.02;4.55;;;;;;;;;;5094016;28;20052;-82
2022/04/28 13:49:33;;;;;;;6.00;3.20;;;;;;;;;;5093958;28;20088;-82
2022/04/28 13:52:18;;;;;;;4.60;3.65;;;;;;;;;;5100598;28;20505;-82
2022/04/28 13:55:06;;;;;;;8.55;5.13;;;;;;;;;;5093693;28;20392;-82
2022/04/28 13:57:51;;;;;;;6.25;3.58;;;;;;;;;;5093494;28;20040;-82
2022/04/28 14:00:38;;;;;;;7.60;4.30;;;;;;;;;;5094119;28;20048;-82
2022/04/28 14:03:27;;;;;;;7.93;5.40;;;;;;;;;;5100293;28;20040;-83
2022/04/28 14:06:12;;;;;;;10.43;5.60;;;;;;;;;;5093679;28;20048;-81
2022/04/28 14:08:57;;;;;;;7.80;4.53;;;;;;;;;;5098644;28;20052;-78
2022/04/28 14:11:42;;;;;;;13.80;7.13;;;;;;;;;;5092291;28;20048;-79
2022/04/28 14:14:28;;;;;;;6.70;4.50;;;;;;;;;;5100286;28;20032;-79
2022/04/28 14:17:17;;;;;;;5.72;4.15;;;;;;;;;;5093812;28;20043;-79
2022/04/28 14:20:09;;;;;;;5.72;3.83;;;;;;;;;;5099308;28;20048;-78
2022/04/28 14:22:54;;;;;;;9.60;6.13;;;;;;;;;;5093504;28;20044;-81
2022/04/28 14:25:39;;;;;;;5.88;3.13;;;;;;;;;;5093353;28;20044;-80
2022/04/28 14:28:25;;;;;;;9.07;5.40;;;;;;;;;;5093717;28;20048;-80
2022/04/28 14:31:11;;;;;;;10.00;5.60;;;;;;;;;;5100795;28;20401;-81
2022/04/28 14:33:57;;;;;;;10.88;7.07;;;;;;;;;;5093098;28;20051;-80
2022/04/28 14:36:42;;;;;;;7.07;4.13;;;;;;;;;;5093475;28;20397;-80
2022/04/28 14:39:28;;;;;;;6.13;3.92;;;;;;;;;;5093196;28;20048;-80
2022/04/28 14:42:13;;;;;;;5.40;3.72;;;;;;;;;;5093427;28;20040;-80
2022/04/28 14:44:59;;;;;;;6.32;4.53;;;;;;;;;;5093176;28;20492;-80
2022/04/28 14:47:44;;;;;;;10.70;6.03;;;;;;;;;;5099519;28;20035;-80
2022/04/28 14:53:34;;;;;;;13.15;5.97;;;;;;;;;;5092846;28;20405;-79
2022/04/28 14:56:20;;;;;;;10.73;6.63;;;;;;;;;;5099414;28;20040;-80
2022/04/28 14:59:05;;;;;;;7.10;4.95;;;;;;;;;;5092919;28;20048;-80
2022/04/28 15:01:52;;;;;;;12.55;5.90;;;;;;;;;;5092429;28;20040;-80
2022/04/28 15:04:36;;;;;;;8.50;5.25;;;;;;;;;;5092385;28;20036;-81
2022/04/28 15:07:22;;;;;;;12.13;6.30;;;;;;;;;;5102217;28;20345;-81
2022/04/28 15:10:11;;;;;;;13.13;7.20;;;;;;;;;;5095773;28;20044;-83
2022/04/28 15:12:57;;;;;;;10.30;5.38;;;;;;;;;;5097740;28;20452;-80
2022/04/28 15:15:48;;;;;;;7.93;5.60;;;;;;;;;;5096932;28;20048;-80
2022/04/28 15:18:33;;;;;;;7.65;5.72;;;;;;;;;;5097190;28;20036;-81
2022/04/28 15:21:19;;;;;;;10.52;5.38;;;;;;;;;;5104296;28;20055;-82
2022/04/28 15:24:06;;;;;;;14.73;6.30;;;;;;;;;;5096788;28;20044;-81
2022/04/28 15:26:52;;;;;;;14.18;7.50;;;;;;;;;;5097111;28;20039;-82
2022/04/28 15:29:37;;;;;;;13.73;6.53;;;;;;;;;;5096208;28;20036;-82
2022/04/28 15:32:22;;;;;;;8.73;6.15;;;;;;;;;;5097157;28;20032;-80
2022/04/28 15:35:08;;;;;;;8.45;6.35;;;;;;;;;;5096872;28;20040;-81
2022/04/28 15:37:54;;;;;;;7.13;3.97;;;;;;;;;;5096445;28;20040;-81
2022/04/28 15:40:39;;;;;;;9.18;4.47;;;;;;;;;;5118109;28;20044;-80
2022/04/28 15:43:25;;;;;;;5.85;4.30;;;;;;;;;;5100225;28;20047;-81
2022/04/28 15:46:11;;;;;;;15.88;10.00;;;;;;;;;;5096814;28;20044;-80
2022/04/28 15:48:57;;;;;;;5.25;4.45;;;;;;;;;;5096588;28;20473;-80
2022/04/28 15:51:44;;;;;;;11.75;6.97;;;;;;;;;;5102823;28;20040;-81
2022/04/28 15:54:30;;;;;;;11.80;6.88;;;;;;;;;;5103258;28;20040;-80
2022/04/28 15:57:21;;;;;;;8.65;6.13;;;;;;;;;;5096774;28;20040;-80
2022/04/28 16:00:12;;;;;;;7.63;5.93;;;;;;;;;;5088448;28;20048;-80
2022/04/28 16:02:59;;;;;;;7.72;4.93;;;;;;;;;;5101712;28;20040;-78
2022/04/28 16:05:45;;;;;;;11.65;7.95;;;;;;;;;;5096443;28;20044;-79
2022/04/28 16:08:31;;;;;;;13.13;6.65;;;;;;;;;;5096431;28;20036;-79
2022/04/28 16:11:17;;;;;;;18.70;11.70;;;;;;;;;;5096103;28;20040;-80
2022/04/28 16:14:03;;;;;;;12.40;7.75;;;;;;;;;;5102766;28;20044;-79
2022/04/28 16:16:48;;;;;;;12.57;7.20;;;;;;;;;;5096158;28;20044;-81
2022/04/28 16:19:34;;;;;;;9.93;6.82;;;;;;;;;;5102147;28;20048;-80
2022/04/28 16:22:20;;;;;;;17.00;9.43;;;;;;;;;;5096110;28;20048;-80
2022/04/28 16:25:06;;;;;;;13.93;7.50;;;;;;;;;;5095743;28;20048;-81
2022/04/28 16:27:51;;;;;;;17.75;6.95;;;;;;;;;;5095361;28;20044;-79
2022/04/28 16:30:39;;;;;;;9.93;5.15;;;;;;;;;;5095599;28;20048;-81
2022/04/28 16:33:24;;;;;;;14.63;6.47;;;;;;;;;;5094789;28;20389;-80
2022/04/28 16:36:10;;;;;;;8.45;4.95;;;;;;;;;;5095369;28;20052;-79
2022/04/28 16:38:56;;;;;;;8.00;5.22;;;;;;;;;;5095121;28;20757;-79
2022/04/28 16:41:42;;;;;;;7.88;4.80;;;;;;;;;;5101683;28;20397;-79
2022/04/28 16:44:29;;;;;;;6.75;4.00;;;;;;;;;;5094940;28;20044;-78
2022/04/28 16:47:15;;;;;;;14.23;4.57;;;;;;;;;;5094834;28;20981;-79
2022/04/28 16:50:01;;;;;;;6.35;4.00;;;;;;;;;;5094874;28;20044;-79
2022/04/28 16:52:47;;;;;;;11.18;6.50;;;;;;;;;;5102012;28;20067;-78
2022/04/28 16:55:35;;;;;;;7.07;3.83;;;;;;;;;;5094964;28;20040;-79
2022/04/28 16:58:21;;;;;;;7.75;5.45;;;;;;;;;;5102002;28;20392;-79
2022/04/28 17:01:06;;;;;;;7.63;5.15;;;;;;;;;;5101196;28;20461;-80
2022/04/28 17:07:07;;;;;;;11.03;6.40;;;;;;;;;;5095189;28;20044;-79
2022/04/28 17:09:51;;;;;;;9.75;4.85;;;;;;;;;;5094515;28;20040;-78
2022/04/28 17:12:37;;;;;;;9.45;5.00;;;;;;;;;;5094788;28;20044;-78
2022/04/28 17:15:23;;;;;;;9.18;5.93;;;;;;;;;;5101975;28;20037;-81
2022/04/28 17:18:09;;;;;;;6.05;3.90;;;;;;;;;;5093905;28;20489;-78
2022/04/28 17:20:54;;;;;;;11.40;6.35;;;;;;;;;;5094936;28;20048;-79
2022/04/28 17:23:40;;;;;;;12.98;6.68;;;;;;;;;;5101005;28;20047;-81
2022/04/28 17:26:27;;;;;;;11.70;5.95;;;;;;;;;;5102267;28;20048;-79
2022/04/28 17:29:15;;;;;;;11.52;6.78;;;;;;;;;;5097162;28;20044;-81
2022/04/28 17:32:03;;;;;;;15.63;8.38;;;;;;;;;;5101104;28;20048;-78
2022/04/28 17:34:48;;;;;;;14.27;9.20;;;;;;;;;;5101466;28;20044;-78